sensor_id;sensor_type;location;lat;lon;timestamp;P1;durP1;ratioP1;P2;durP2;ratioP2
71626;SDS011;59475;52.464;13.590;2023-06-22T00:00:50;18.90;;;14.43;;
71626;SDS011;59475;52.464;13.590;2023-06-22T00:03:17;20.57;;;15.17;;
71626;SDS011;59475;52.464;13.590;2023-06-22T00:05:43;18.73;;;15.20;;
71626;SDS011;59475;52.464;13.590;2023-06-22T00:08:08;19.07;;;14.90;;
71626;SDS011;59475;52.464;13.590;2023-06-22T00:10:34;18.75;;;15.23;;
71626;SDS011;59475;52.464;13.590;2023-06-22T00:13:00;18.47;;;15.63;;
71626;SDS011;59475;52.464;13.590;2023-06-22T00:15:25;18.30;;;15.52;;
71626;SDS011;59475;52.464;13.590;2023-06-22T00:17:51;21.80;;;16.37;;
71626;SDS011;59475;52.464;13.590;2023-06-22T00:20:16;19.17;;;16.20;;
71626;SDS011;59475;52.464;13.590;2023-06-22T00:22:43;19.90;;;15.82;;
71626;SDS011;59475;52.464;13.590;2023-06-22T00:25:09;20.08;;;15.82;;
71626;SDS011;59475;52.464;13.590;2023-06-22T00:27:35;19.58;;;15.65;;
71626;SDS011;59475;52.464;13.590;2023-06-22T00:30:01;23.58;;;15.70;;
71626;SDS011;59475;52.464;13.590;2023-06-22T00:32:27;18.63;;;15.17;;
71626;SDS011;59475;52.464;13.590;2023-06-22T00:34:52;20.43;;;15.70;;
71626;SDS011;59475;52.464;13.590;2023-06-22T00:37:18;18.07;;;15.17;;
71626;SDS011;59475;52.464;13.590;2023-06-22T00:39:43;21.10;;;15.50;;
71626;SDS011;59475;52.464;13.590;2023-06-22T00:42:09;18.90;;;15.13;;
71626;SDS011;59475;52.464;13.590;2023-06-22T00:44:35;19.52;;;15.68;;
71626;SDS011;59475;52.464;13.590;2023-06-22T00:47:00;21.53;;;16.10;;
71626;SDS011;59475;52.464;13.590;2023-06-22T00:49:26;18.65;;;15.10;;
71626;SDS011;59475;52.464;13.590;2023-06-22T00:51:52;18.97;;;16.00;;
71626;SDS011;59475;52.464;13.590;2023-06-22T00:54:17;19.70;;;16.02;;
71626;SDS011;59475;52.464;13.590;2023-06-22T00:56:49;19.20;;;15.40;;
71626;SDS011;59475;52.464;13.590;2023-06-22T00:59:19;19.73;;;15.53;;
71626;SDS011;59475;52.464;13.590;2023-06-22T01:01:45;19.48;;;15.20;;
71626;SDS011;59475;52.464;13.590;2023-06-22T01:04:11;18.57;;;15.33;;
71626;SDS011;59475;52.464;13.590;2023-06-22T01:06:38;17.90;;;14.60;;
71626;SDS011;59475;52.464;13.590;2023-06-22T01:09:17;18.35;;;15.27;;
71626;SDS011;59475;52.464;13.590;2023-06-22T01:11:47;17.23;;;13.90;;
71626;SDS011;59475;52.464;13.590;2023-06-22T01:14:20;17.87;;;14.07;;
71626;SDS011;59475;52.464;13.590;2023-06-22T01:17:00;16.55;;;14.15;;
71626;SDS011;59475;52.464;13.590;2023-06-22T01:22:06;17.48;;;13.63;;
71626;SDS011;59475;52.464;13.590;2023-06-22T01:30:13;15.75;;;13.85;;
71626;SDS011;59475;52.464;13.590;2023-06-22T01:32:41;17.05;;;13.43;;
71626;SDS011;59475;52.464;13.590;2023-06-22T01:35:08;14.52;;;12.80;;
71626;SDS011;59475;52.464;13.590;2023-06-22T01:37:35;17.25;;;13.15;;
71626;SDS011;59475;52.464;13.590;2023-06-22T01:40:02;16.67;;;14.00;;
71626;SDS011;59475;52.464;13.590;2023-06-22T01:42:30;17.90;;;13.82;;
71626;SDS011;59475;52.464;13.590;2023-06-22T01:44:56;16.70;;;13.18;;
71626;SDS011;59475;52.464;13.590;2023-06-22T01:47:23;16.30;;;13.77;;
71626;SDS011;59475;52.464;13.590;2023-06-22T01:49:49;17.33;;;14.15;;
71626;SDS011;59475;52.464;13.590;2023-06-22T01:52:18;14.63;;;12.97;;
71626;SDS011;59475;52.464;13.590;2023-06-22T01:54:45;15.07;;;13.25;;
71626;SDS011;59475;52.464;13.590;2023-06-22T01:57:11;14.73;;;12.77;;
71626;SDS011;59475;52.464;13.590;2023-06-22T01:59:37;15.55;;;12.57;;
71626;SDS011;59475;52.464;13.590;2023-06-22T02:02:43;16.23;;;12.93;;
71626;SDS011;59475;52.464;13.590;2023-06-22T02:05:15;17.95;;;14.63;;
71626;SDS011;59475;52.464;13.590;2023-06-22T02:07:45;17.58;;;14.25;;
71626;SDS011;59475;52.464;13.590;2023-06-22T02:10:14;18.50;;;14.80;;
71626;SDS011;59475;52.464;13.590;2023-06-22T02:12:43;18.35;;;15.25;;
71626;SDS011;59475;52.464;13.590;2023-06-22T02:15:10;18.95;;;15.00;;
71626;SDS011;59475;52.464;13.590;2023-06-22T02:17:37;18.05;;;14.18;;
71626;SDS011;59475;52.464;13.590;2023-06-22T02:20:03;17.20;;;14.13;;
71626;SDS011;59475;52.464;13.590;2023-06-22T02:22:33;16.55;;;14.27;;
71626;SDS011;59475;52.464;13.590;2023-06-22T02:24:59;17.10;;;13.73;;
71626;SDS011;59475;52.464;13.590;2023-06-22T02:27:25;19.17;;;13.75;;
71626;SDS011;59475;52.464;13.590;2023-06-22T02:29:50;16.17;;;13.87;;
71626;SDS011;59475;52.464;13.590;2023-06-22T02:32:15;18.67;;;14.23;;
71626;SDS011;59475;52.464;13.590;2023-06-22T02:34:42;20.63;;;14.93;;
71626;SDS011;59475;52.464;13.590;2023-06-22T02:37:12;16.38;;;13.80;;
71626;SDS011;59475;52.464;13.590;2023-06-22T02:39:39;19.33;;;15.52;;
71626;SDS011;59475;52.464;13.590;2023-06-22T02:42:05;17.30;;;13.85;;
71626;SDS011;59475;52.464;13.590;2023-06-22T02:44:31;19.93;;;14.50;;
71626;SDS011;59475;52.464;13.590;2023-06-22T02:46:56;19.27;;;15.03;;
71626;SDS011;59475;52.464;13.590;2023-06-22T02:49:22;18.27;;;15.33;;
71626;SDS011;59475;52.464;13.590;2023-06-22T02:51:48;19.27;;;15.37;;
71626;SDS011;59475;52.464;13.590;2023-06-22T02:54:13;18.50;;;14.70;;
71626;SDS011;59475;52.464;13.590;2023-06-22T02:56:42;17.52;;;15.20;;
71626;SDS011;59475;52.464;13.590;2023-06-22T02:59:11;18.73;;;14.87;;
71626;SDS011;59475;52.464;13.590;2023-06-22T03:01:36;19.20;;;14.52;;
71626;SDS011;59475;52.464;13.590;2023-06-22T03:04:08;18.87;;;14.17;;
71626;SDS011;59475;52.464;13.590;2023-06-22T03:06:34;18.50;;;15.02;;
71626;SDS011;59475;52.464;13.590;2023-06-22T03:09:01;19.30;;;15.85;;
71626;SDS011;59475;52.464;13.590;2023-06-22T03:11:30;20.35;;;16.25;;
71626;SDS011;59475;52.464;13.590;2023-06-22T03:13:56;16.70;;;14.90;;
71626;SDS011;59475;52.464;13.590;2023-06-22T03:16:21;18.37;;;15.17;;
71626;SDS011;59475;52.464;13.590;2023-06-22T03:18:47;19.80;;;15.87;;
71626;SDS011;59475;52.464;13.590;2023-06-22T03:21:12;17.03;;;15.20;;
71626;SDS011;59475;52.464;13.590;2023-06-22T03:23:37;18.37;;;15.67;;
71626;SDS011;59475;52.464;13.590;2023-06-22T03:26:03;18.42;;;15.43;;
71626;SDS011;59475;52.464;13.590;2023-06-22T03:28:29;18.27;;;15.53;;
71626;SDS011;59475;52.464;13.590;2023-06-22T03:30:56;18.77;;;16.25;;
71626;SDS011;59475;52.464;13.590;2023-06-22T03:33:23;21.48;;;16.15;;
71626;SDS011;59475;52.464;13.590;2023-06-22T03:35:48;20.07;;;15.80;;
71626;SDS011;59475;52.464;13.590;2023-06-22T03:38:14;20.83;;;16.15;;
71626;SDS011;59475;52.464;13.590;2023-06-22T03:40:41;20.90;;;16.40;;
71626;SDS011;59475;52.464;13.590;2023-06-22T03:43:06;18.90;;;16.33;;
71626;SDS011;59475;52.464;13.590;2023-06-22T03:45:31;18.00;;;16.10;;
71626;SDS011;59475;52.464;13.590;2023-06-22T03:47:57;21.30;;;16.43;;
71626;SDS011;59475;52.464;13.590;2023-06-22T03:50:22;21.67;;;15.80;;
71626;SDS011;59475;52.464;13.590;2023-06-22T03:52:48;20.95;;;17.05;;
71626;SDS011;59475;52.464;13.590;2023-06-22T03:55:13;21.17;;;15.97;;
71626;SDS011;59475;52.464;13.590;2023-06-22T03:57:39;22.13;;;16.97;;
71626;SDS011;59475;52.464;13.590;2023-06-22T04:00:04;19.30;;;16.00;;
71626;SDS011;59475;52.464;13.590;2023-06-22T04:02:31;21.33;;;17.17;;
71626;SDS011;59475;52.464;13.590;2023-06-22T04:04:56;18.83;;;16.25;;
71626;SDS011;59475;52.464;13.590;2023-06-22T04:07:21;19.27;;;16.57;;
71626;SDS011;59475;52.464;13.590;2023-06-22T04:09:47;22.50;;;16.33;;
71626;SDS011;59475;52.464;13.590;2023-06-22T04:12:12;22.98;;;15.73;;
71626;SDS011;59475;52.464;13.590;2023-06-22T04:14:38;21.10;;;16.63;;
71626;SDS011;59475;52.464;13.590;2023-06-22T04:17:04;19.50;;;16.33;;
71626;SDS011;59475;52.464;13.590;2023-06-22T04:19:29;20.48;;;15.95;;
71626;SDS011;59475;52.464;13.590;2023-06-22T04:21:55;21.37;;;16.17;;
71626;SDS011;59475;52.464;13.590;2023-06-22T04:24:20;21.60;;;16.13;;
71626;SDS011;59475;52.464;13.590;2023-06-22T04:26:45;19.50;;;15.82;;
71626;SDS011;59475;52.464;13.590;2023-06-22T04:29:11;18.43;;;15.53;;
71626;SDS011;59475;52.464;13.590;2023-06-22T04:31:37;20.77;;;15.95;;
71626;SDS011;59475;52.464;13.590;2023-06-22T04:34:03;22.07;;;14.83;;
71626;SDS011;59475;52.464;13.590;2023-06-22T04:36:35;21.05;;;15.73;;
71626;SDS011;59475;52.464;13.590;2023-06-22T04:39:06;18.15;;;15.93;;
71626;SDS011;59475;52.464;13.590;2023-06-22T04:41:34;17.50;;;14.70;;
71626;SDS011;59475;52.464;13.590;2023-06-22T04:44:07;15.23;;;13.40;;
71626;SDS011;59475;52.464;13.590;2023-06-22T04:46:33;16.83;;;14.07;;
71626;SDS011;59475;52.464;13.590;2023-06-22T04:49:03;21.63;;;14.55;;
71626;SDS011;59475;52.464;13.590;2023-06-22T04:51:41;16.98;;;13.63;;
71626;SDS011;59475;52.464;13.590;2023-06-22T04:54:08;17.00;;;13.05;;
71626;SDS011;59475;52.464;13.590;2023-06-22T04:56:34;16.97;;;13.17;;
71626;SDS011;59475;52.464;13.590;2023-06-22T04:59:00;15.18;;;12.48;;
71626;SDS011;59475;52.464;13.590;2023-06-22T05:01:26;13.85;;;11.48;;
71626;SDS011;59475;52.464;13.590;2023-06-22T05:03:52;14.10;;;10.40;;
71626;SDS011;59475;52.464;13.590;2023-06-22T05:06:20;13.25;;;10.68;;
71626;SDS011;59475;52.464;13.590;2023-06-22T05:08:53;14.23;;;10.45;;
71626;SDS011;59475;52.464;13.590;2023-06-22T05:11:22;12.13;;;9.38;;
71626;SDS011;59475;52.464;13.590;2023-06-22T05:13:50;9.90;;;8.82;;
71626;SDS011;59475;52.464;13.590;2023-06-22T05:16:15;11.07;;;8.83;;
71626;SDS011;59475;52.464;13.590;2023-06-22T05:18:41;12.43;;;8.90;;
71626;SDS011;59475;52.464;13.590;2023-06-22T05:21:06;10.60;;;7.87;;
71626;SDS011;59475;52.464;13.590;2023-06-22T05:23:32;8.82;;;7.47;;
71626;SDS011;59475;52.464;13.590;2023-06-22T05:25:57;11.20;;;8.20;;
71626;SDS011;59475;52.464;13.590;2023-06-22T05:28:23;10.40;;;7.83;;
71626;SDS011;59475;52.464;13.590;2023-06-22T05:30:48;11.67;;;7.63;;
71626;SDS011;59475;52.464;13.590;2023-06-22T05:33:14;9.20;;;7.40;;
71626;SDS011;59475;52.464;13.590;2023-06-22T05:35:40;9.13;;;7.03;;
71626;SDS011;59475;52.464;13.590;2023-06-22T05:38:06;8.88;;;6.53;;
71626;SDS011;59475;52.464;13.590;2023-06-22T05:40:31;8.50;;;6.23;;
71626;SDS011;59475;52.464;13.590;2023-06-22T05:42:57;7.93;;;6.53;;
71626;SDS011;59475;52.464;13.590;2023-06-22T05:45:22;7.97;;;6.18;;
71626;SDS011;59475;52.464;13.590;2023-06-22T05:47:48;7.43;;;6.13;;
71626;SDS011;59475;52.464;13.590;2023-06-22T05:50:13;8.37;;;5.77;;
71626;SDS011;59475;52.464;13.590;2023-06-22T05:52:39;9.60;;;6.00;;
71626;SDS011;59475;52.464;13.590;2023-06-22T05:55:04;9.68;;;5.50;;
71626;SDS011;59475;52.464;13.590;2023-06-22T05:57:30;6.43;;;5.70;;
71626;SDS011;59475;52.464;13.590;2023-06-22T05:59:55;7.35;;;5.38;;
71626;SDS011;59475;52.464;13.590;2023-06-22T06:02:21;7.03;;;5.27;;
71626;SDS011;59475;52.464;13.590;2023-06-22T06:04:46;6.17;;;5.30;;
71626;SDS011;59475;52.464;13.590;2023-06-22T06:07:11;6.63;;;4.90;;
71626;SDS011;59475;52.464;13.590;2023-06-22T06:09:37;7.07;;;5.37;;
71626;SDS011;59475;52.464;13.590;2023-06-22T06:12:03;8.93;;;4.97;;
71626;SDS011;59475;52.464;13.590;2023-06-22T06:14:28;5.47;;;4.03;;
71626;SDS011;59475;52.464;13.590;2023-06-22T06:16:54;6.63;;;4.37;;
71626;SDS011;59475;52.464;13.590;2023-06-22T06:19:19;6.03;;;4.53;;
71626;SDS011;59475;52.464;13.590;2023-06-22T06:21:45;5.50;;;4.50;;
71626;SDS011;59475;52.464;13.590;2023-06-22T06:24:11;7.35;;;3.90;;
71626;SDS011;59475;52.464;13.590;2023-06-22T06:26:36;5.55;;;4.07;;
71626;SDS011;59475;52.464;13.590;2023-06-22T06:29:02;5.27;;;4.20;;
71626;SDS011;59475;52.464;13.590;2023-06-22T06:31:28;5.57;;;3.85;;
71626;SDS011;59475;52.464;13.590;2023-06-22T06:33:53;4.47;;;4.00;;
71626;SDS011;59475;52.464;13.590;2023-06-22T06:36:22;4.97;;;3.63;;
71626;SDS011;59475;52.464;13.590;2023-06-22T06:38:48;4.22;;;3.65;;
71626;SDS011;59475;52.464;13.590;2023-06-22T06:41:14;5.77;;;3.77;;
71626;SDS011;59475;52.464;13.590;2023-06-22T06:43:40;5.65;;;3.53;;
71626;SDS011;59475;52.464;13.590;2023-06-22T06:46:07;6.23;;;3.57;;
71626;SDS011;59475;52.464;13.590;2023-06-22T06:48:33;4.85;;;3.55;;
71626;SDS011;59475;52.464;13.590;2023-06-22T06:50:58;4.10;;;3.70;;
71626;SDS011;59475;52.464;13.590;2023-06-22T06:53:23;4.40;;;3.20;;
71626;SDS011;59475;52.464;13.590;2023-06-22T06:55:49;4.05;;;3.25;;
71626;SDS011;59475;52.464;13.590;2023-06-22T06:58:14;4.53;;;3.60;;
71626;SDS011;59475;52.464;13.590;2023-06-22T07:00:41;4.50;;;3.10;;
71626;SDS011;59475;52.464;13.590;2023-06-22T07:03:09;5.33;;;3.00;;
71626;SDS011;59475;52.464;13.590;2023-06-22T07:05:34;5.28;;;3.13;;
71626;SDS011;59475;52.464;13.590;2023-06-22T07:08:00;6.23;;;3.03;;
71626;SDS011;59475;52.464;13.590;2023-06-22T07:10:26;4.38;;;3.33;;
71626;SDS011;59475;52.464;13.590;2023-06-22T07:12:51;5.35;;;3.05;;
71626;SDS011;59475;52.464;13.590;2023-06-22T07:15:17;4.30;;;3.27;;
71626;SDS011;59475;52.464;13.590;2023-06-22T07:17:42;3.87;;;3.10;;
71626;SDS011;59475;52.464;13.590;2023-06-22T07:20:08;4.73;;;3.40;;
71626;SDS011;59475;52.464;13.590;2023-06-22T07:22:37;5.97;;;2.80;;
71626;SDS011;59475;52.464;13.590;2023-06-22T07:25:04;3.70;;;3.00;;
71626;SDS011;59475;52.464;13.590;2023-06-22T07:27:35;3.63;;;2.75;;
71626;SDS011;59475;52.464;13.590;2023-06-22T07:30:05;3.75;;;2.83;;
71626;SDS011;59475;52.464;13.590;2023-06-22T07:32:31;3.90;;;2.80;;
71626;SDS011;59475;52.464;13.590;2023-06-22T07:34:56;3.38;;;2.85;;
71626;SDS011;59475;52.464;13.590;2023-06-22T07:37:22;3.80;;;2.70;;
71626;SDS011;59475;52.464;13.590;2023-06-22T07:39:52;4.95;;;2.80;;
71626;SDS011;59475;52.464;13.590;2023-06-22T07:42:18;3.72;;;2.67;;
71626;SDS011;59475;52.464;13.590;2023-06-22T07:44:44;5.43;;;3.13;;
71626;SDS011;59475;52.464;13.590;2023-06-22T07:47:09;3.77;;;2.70;;
71626;SDS011;59475;52.464;13.590;2023-06-22T07:49:35;3.60;;;2.90;;
71626;SDS011;59475;52.464;13.590;2023-06-22T07:52:00;4.10;;;2.55;;
71626;SDS011;59475;52.464;13.590;2023-06-22T07:54:26;3.97;;;3.30;;
71626;SDS011;59475;52.464;13.590;2023-06-22T07:56:52;3.77;;;3.10;;
71626;SDS011;59475;52.464;13.590;2023-06-22T07:59:17;3.73;;;2.80;;
71626;SDS011;59475;52.464;13.590;2023-06-22T08:01:43;3.83;;;2.60;;
71626;SDS011;59475;52.464;13.590;2023-06-22T08:04:08;2.72;;;2.45;;
71626;SDS011;59475;52.464;13.590;2023-06-22T08:06:34;4.77;;;2.50;;
71626;SDS011;59475;52.464;13.590;2023-06-22T08:08:59;3.27;;;2.83;;
71626;SDS011;59475;52.464;13.590;2023-06-22T08:11:24;3.43;;;2.53;;
71626;SDS011;59475;52.464;13.590;2023-06-22T08:13:50;3.83;;;2.83;;
71626;SDS011;59475;52.464;13.590;2023-06-22T08:16:16;3.47;;;2.72;;
71626;SDS011;59475;52.464;13.590;2023-06-22T08:18:41;3.43;;;2.60;;
71626;SDS011;59475;52.464;13.590;2023-06-22T08:21:07;5.20;;;2.70;;
71626;SDS011;59475;52.464;13.590;2023-06-22T08:23:32;3.60;;;2.47;;
71626;SDS011;59475;52.464;13.590;2023-06-22T08:25:59;4.30;;;2.90;;
71626;SDS011;59475;52.464;13.590;2023-06-22T08:28:24;6.80;;;3.00;;
71626;SDS011;59475;52.464;13.590;2023-06-22T08:30:49;4.73;;;3.23;;
71626;SDS011;59475;52.464;13.590;2023-06-22T08:33:15;4.80;;;2.80;;
71626;SDS011;59475;52.464;13.590;2023-06-22T08:35:40;4.23;;;3.13;;
71626;SDS011;59475;52.464;13.590;2023-06-22T08:38:06;4.15;;;2.60;;
71626;SDS011;59475;52.464;13.590;2023-06-22T08:40:32;3.30;;;2.72;;
71626;SDS011;59475;52.464;13.590;2023-06-22T08:42:58;5.70;;;3.20;;
71626;SDS011;59475;52.464;13.590;2023-06-22T08:45:23;4.03;;;2.90;;
71626;SDS011;59475;52.464;13.590;2023-06-22T08:47:49;3.45;;;3.03;;
71626;SDS011;59475;52.464;13.590;2023-06-22T08:50:14;3.87;;;2.90;;
71626;SDS011;59475;52.464;13.590;2023-06-22T08:52:40;5.47;;;3.30;;
71626;SDS011;59475;52.464;13.590;2023-06-22T08:55:08;7.88;;;3.13;;
71626;SDS011;59475;52.464;13.590;2023-06-22T08:57:34;3.80;;;3.10;;
71626;SDS011;59475;52.464;13.590;2023-06-22T09:00:02;4.65;;;3.08;;
71626;SDS011;59475;52.464;13.590;2023-06-22T09:02:30;4.60;;;3.00;;
71626;SDS011;59475;52.464;13.590;2023-06-22T09:04:59;3.75;;;2.95;;
71626;SDS011;59475;52.464;13.590;2023-06-22T09:07:24;3.65;;;2.78;;
71626;SDS011;59475;52.464;13.590;2023-06-22T09:09:51;3.20;;;2.70;;
71626;SDS011;59475;52.464;13.590;2023-06-22T09:12:17;4.20;;;2.70;;
71626;SDS011;59475;52.464;13.590;2023-06-22T09:14:45;5.10;;;2.88;;
71626;SDS011;59475;52.464;13.590;2023-06-22T09:17:11;3.97;;;3.05;;
71626;SDS011;59475;52.464;13.590;2023-06-22T09:19:37;4.13;;;3.00;;
71626;SDS011;59475;52.464;13.590;2023-06-22T09:22:03;3.90;;;2.90;;
71626;SDS011;59475;52.464;13.590;2023-06-22T09:24:31;4.97;;;3.15;;
71626;SDS011;59475;52.464;13.590;2023-06-22T09:26:56;3.87;;;2.93;;
71626;SDS011;59475;52.464;13.590;2023-06-22T09:29:22;3.70;;;2.70;;
71626;SDS011;59475;52.464;13.590;2023-06-22T09:31:47;5.07;;;2.97;;
71626;SDS011;59475;52.464;13.590;2023-06-22T09:34:12;4.23;;;2.83;;
71626;SDS011;59475;52.464;13.590;2023-06-22T09:36:38;5.83;;;3.10;;
71626;SDS011;59475;52.464;13.590;2023-06-22T09:39:04;4.28;;;2.78;;
71626;SDS011;59475;52.464;13.590;2023-06-22T09:41:31;3.95;;;2.85;;
71626;SDS011;59475;52.464;13.590;2023-06-22T09:43:57;3.30;;;2.70;;
71626;SDS011;59475;52.464;13.590;2023-06-22T09:46:23;3.42;;;2.28;;
71626;SDS011;59475;52.464;13.590;2023-06-22T09:48:50;4.17;;;2.83;;
71626;SDS011;59475;52.464;13.590;2023-06-22T09:51:16;3.85;;;2.80;;
71626;SDS011;59475;52.464;13.590;2023-06-22T09:53:41;3.23;;;2.50;;
71626;SDS011;59475;52.464;13.590;2023-06-22T09:56:07;3.93;;;2.27;;
71626;SDS011;59475;52.464;13.590;2023-06-22T09:58:36;3.53;;;2.73;;
71626;SDS011;59475;52.464;13.590;2023-06-22T10:01:01;2.90;;;2.10;;
71626;SDS011;59475;52.464;13.590;2023-06-22T10:03:26;2.97;;;1.90;;
71626;SDS011;59475;52.464;13.590;2023-06-22T10:05:52;2.40;;;1.90;;
71626;SDS011;59475;52.464;13.590;2023-06-22T10:08:17;4.40;;;2.30;;
71626;SDS011;59475;52.464;13.590;2023-06-22T10:10:44;3.37;;;2.03;;
71626;SDS011;59475;52.464;13.590;2023-06-22T10:13:13;4.45;;;2.30;;
71626;SDS011;59475;52.464;13.590;2023-06-22T10:15:41;4.18;;;2.10;;
71626;SDS011;59475;52.464;13.590;2023-06-22T10:18:07;2.70;;;2.13;;
71626;SDS011;59475;52.464;13.590;2023-06-22T10:20:33;2.80;;;2.17;;
71626;SDS011;59475;52.464;13.590;2023-06-22T10:22:58;3.27;;;2.10;;
71626;SDS011;59475;52.464;13.590;2023-06-22T10:25:24;3.08;;;1.90;;
71626;SDS011;59475;52.464;13.590;2023-06-22T10:27:50;6.57;;;2.20;;
71626;SDS011;59475;52.464;13.590;2023-06-22T10:30:15;3.13;;;2.30;;
71626;SDS011;59475;52.464;13.590;2023-06-22T10:32:42;3.47;;;1.93;;
71626;SDS011;59475;52.464;13.590;2023-06-22T10:35:08;2.80;;;2.33;;
71626;SDS011;59475;52.464;13.590;2023-06-22T10:37:38;3.70;;;2.30;;
71626;SDS011;59475;52.464;13.590;2023-06-22T10:40:04;2.70;;;2.20;;
71626;SDS011;59475;52.464;13.590;2023-06-22T10:42:30;3.85;;;2.55;;
71626;SDS011;59475;52.464;13.590;2023-06-22T10:44:56;3.77;;;2.00;;
71626;SDS011;59475;52.464;13.590;2023-06-22T10:47:21;4.27;;;2.20;;
71626;SDS011;59475;52.464;13.590;2023-06-22T10:49:46;4.63;;;2.70;;
71626;SDS011;59475;52.464;13.590;2023-06-22T10:52:12;2.77;;;2.07;;
71626;SDS011;59475;52.464;13.590;2023-06-22T10:54:37;3.63;;;2.47;;
71626;SDS011;59475;52.464;13.590;2023-06-22T10:57:05;3.05;;;2.35;;
71626;SDS011;59475;52.464;13.590;2023-06-22T10:59:31;2.67;;;2.20;;
71626;SDS011;59475;52.464;13.590;2023-06-22T11:01:56;3.85;;;2.58;;
71626;SDS011;59475;52.464;13.590;2023-06-22T11:04:22;5.53;;;2.27;;
71626;SDS011;59475;52.464;13.590;2023-06-22T11:06:48;2.83;;;2.10;;
71626;SDS011;59475;52.464;13.590;2023-06-22T11:09:14;3.38;;;2.10;;
71626;SDS011;59475;52.464;13.590;2023-06-22T11:11:45;4.17;;;2.30;;
71626;SDS011;59475;52.464;13.590;2023-06-22T11:14:15;4.57;;;2.28;;
71626;SDS011;59475;52.464;13.590;2023-06-22T11:16:41;3.50;;;2.40;;
71626;SDS011;59475;52.464;13.590;2023-06-22T11:19:07;3.47;;;2.20;;
71626;SDS011;59475;52.464;13.590;2023-06-22T11:21:32;5.13;;;2.37;;
71626;SDS011;59475;52.464;13.590;2023-06-22T11:23:58;3.30;;;2.35;;
71626;SDS011;59475;52.464;13.590;2023-06-22T11:26:24;2.90;;;2.37;;
71626;SDS011;59475;52.464;13.590;2023-06-22T11:28:52;5.82;;;2.10;;
71626;SDS011;59475;52.464;13.590;2023-06-22T11:31:17;3.47;;;2.30;;
71626;SDS011;59475;52.464;13.590;2023-06-22T11:33:43;3.10;;;2.50;;
71626;SDS011;59475;52.464;13.590;2023-06-22T11:36:10;4.43;;;2.70;;
71626;SDS011;59475;52.464;13.590;2023-06-22T11:38:36;3.30;;;2.63;;
71626;SDS011;59475;52.464;13.590;2023-06-22T11:41:04;3.20;;;2.40;;
71626;SDS011;59475;52.464;13.590;2023-06-22T11:43:32;2.67;;;2.25;;
71626;SDS011;59475;52.464;13.590;2023-06-22T11:46:00;2.50;;;2.20;;
71626;SDS011;59475;52.464;13.590;2023-06-22T11:48:26;3.72;;;2.45;;
71626;SDS011;59475;52.464;13.590;2023-06-22T11:50:52;3.10;;;2.20;;
71626;SDS011;59475;52.464;13.590;2023-06-22T11:53:17;5.17;;;2.60;;
71626;SDS011;59475;52.464;13.590;2023-06-22T11:55:43;3.40;;;2.50;;
71626;SDS011;59475;52.464;13.590;2023-06-22T11:58:09;2.67;;;2.00;;
71626;SDS011;59475;52.464;13.590;2023-06-22T12:00:35;5.45;;;2.30;;
71626;SDS011;59475;52.464;13.590;2023-06-22T12:03:00;2.67;;;2.33;;
71626;SDS011;59475;52.464;13.590;2023-06-22T12:05:26;3.53;;;2.58;;
71626;SDS011;59475;52.464;13.590;2023-06-22T12:07:55;3.53;;;2.50;;
71626;SDS011;59475;52.464;13.590;2023-06-22T12:10:24;4.25;;;2.28;;
71626;SDS011;59475;52.464;13.590;2023-06-22T12:12:51;4.53;;;2.40;;
71626;SDS011;59475;52.464;13.590;2023-06-22T12:15:16;3.07;;;2.50;;
71626;SDS011;59475;52.464;13.590;2023-06-22T12:17:42;3.20;;;2.80;;
71626;SDS011;59475;52.464;13.590;2023-06-22T12:20:07;5.27;;;2.93;;
71626;SDS011;59475;52.464;13.590;2023-06-22T12:22:34;4.60;;;2.33;;
71626;SDS011;59475;52.464;13.590;2023-06-22T12:25:00;4.55;;;2.60;;
71626;SDS011;59475;52.464;13.590;2023-06-22T12:27:26;3.77;;;2.87;;
71626;SDS011;59475;52.464;13.590;2023-06-22T12:29:52;4.25;;;2.90;;
71626;SDS011;59475;52.464;13.590;2023-06-22T12:32:17;3.10;;;2.70;;
71626;SDS011;59475;52.464;13.590;2023-06-22T12:34:43;5.45;;;2.88;;
71626;SDS011;59475;52.464;13.590;2023-06-22T12:37:09;3.70;;;2.93;;
71626;SDS011;59475;52.464;13.590;2023-06-22T12:39:35;5.15;;;3.10;;
71626;SDS011;59475;52.464;13.590;2023-06-22T12:42:00;3.10;;;2.70;;
71626;SDS011;59475;52.464;13.590;2023-06-22T12:44:26;5.47;;;2.67;;
71626;SDS011;59475;52.464;13.590;2023-06-22T12:46:51;3.93;;;2.70;;
71626;SDS011;59475;52.464;13.590;2023-06-22T12:49:16;3.60;;;2.70;;
71626;SDS011;59475;52.464;13.590;2023-06-22T12:51:42;3.10;;;2.80;;
71626;SDS011;59475;52.464;13.590;2023-06-22T12:54:08;5.93;;;3.20;;
71626;SDS011;59475;52.464;13.590;2023-06-22T12:56:34;4.30;;;2.90;;
71626;SDS011;59475;52.464;13.590;2023-06-22T12:59:00;4.03;;;3.30;;
71626;SDS011;59475;52.464;13.590;2023-06-22T13:01:29;4.60;;;2.93;;
71626;SDS011;59475;52.464;13.590;2023-06-22T13:03:55;5.38;;;3.40;;
71626;SDS011;59475;52.464;13.590;2023-06-22T13:06:21;3.97;;;3.40;;
71626;SDS011;59475;52.464;13.590;2023-06-22T13:08:46;3.87;;;3.33;;
71626;SDS011;59475;52.464;13.590;2023-06-22T13:11:12;4.50;;;3.43;;
71626;SDS011;59475;52.464;13.590;2023-06-22T13:13:38;5.03;;;3.60;;
71626;SDS011;59475;52.464;13.590;2023-06-22T13:16:03;4.80;;;3.60;;
71626;SDS011;59475;52.464;13.590;2023-06-22T13:18:29;5.07;;;3.57;;
71626;SDS011;59475;52.464;13.590;2023-06-22T13:20:54;5.33;;;3.60;;
71626;SDS011;59475;52.464;13.590;2023-06-22T13:23:20;3.63;;;3.03;;
71626;SDS011;59475;52.464;13.590;2023-06-22T13:25:46;5.05;;;3.22;;
71626;SDS011;59475;52.464;13.590;2023-06-22T13:28:13;3.83;;;3.50;;
71626;SDS011;59475;52.464;13.590;2023-06-22T13:30:39;4.20;;;3.10;;
71626;SDS011;59475;52.464;13.590;2023-06-22T13:33:05;4.72;;;2.90;;
71626;SDS011;59475;52.464;13.590;2023-06-22T13:35:31;4.03;;;3.13;;
71626;SDS011;59475;52.464;13.590;2023-06-22T13:37:56;4.10;;;3.20;;
71626;SDS011;59475;52.464;13.590;2023-06-22T13:40:21;4.83;;;3.37;;
71626;SDS011;59475;52.464;13.590;2023-06-22T13:42:47;4.55;;;3.47;;
71626;SDS011;59475;52.464;13.590;2023-06-22T13:45:12;4.10;;;3.10;;
71626;SDS011;59475;52.464;13.590;2023-06-22T13:47:38;4.30;;;3.17;;
71626;SDS011;59475;52.464;13.590;2023-06-22T13:50:04;3.35;;;2.70;;
71626;SDS011;59475;52.464;13.590;2023-06-22T13:52:30;4.88;;;2.85;;
71626;SDS011;59475;52.464;13.590;2023-06-22T13:54:56;4.70;;;3.40;;
71626;SDS011;59475;52.464;13.590;2023-06-22T13:57:21;6.63;;;3.60;;
71626;SDS011;59475;52.464;13.590;2023-06-22T13:59:47;5.18;;;3.78;;
71626;SDS011;59475;52.464;13.590;2023-06-22T14:02:12;3.90;;;3.20;;
71626;SDS011;59475;52.464;13.590;2023-06-22T14:04:37;8.27;;;3.87;;
71626;SDS011;59475;52.464;13.590;2023-06-22T14:07:03;4.80;;;3.77;;
71626;SDS011;59475;52.464;13.590;2023-06-22T14:09:28;4.85;;;3.20;;
71626;SDS011;59475;52.464;13.590;2023-06-22T14:11:54;4.53;;;3.53;;
71626;SDS011;59475;52.464;13.590;2023-06-22T14:14:20;3.67;;;3.22;;
71626;SDS011;59475;52.464;13.590;2023-06-22T14:16:46;5.50;;;3.30;;
71626;SDS011;59475;52.464;13.590;2023-06-22T14:19:12;4.60;;;3.25;;
71626;SDS011;59475;52.464;13.590;2023-06-22T14:21:38;4.53;;;3.50;;
71626;SDS011;59475;52.464;13.590;2023-06-22T14:24:03;6.70;;;3.17;;
71626;SDS011;59475;52.464;13.590;2023-06-22T14:26:29;4.93;;;3.27;;
71626;SDS011;59475;52.464;13.590;2023-06-22T14:28:54;4.87;;;3.30;;